Terminal Aerodrome Forecast
Issued by NWS

Home | Current Version | Previous Version | Text Only | Print | Product List | Glossary On
Versions: 1 2 3 4 5 6 7 8 9 10 11 12 13 14 15 16 17 18
000
FTUS45 KBOU 160652 AAA
TAFBJC
TAF AMD
KBJC 160652Z 1607/1706 35005KT 2SM -SN BR OVC012
      TEMPO 1607/1610 3/4SM -SN BR BKN006 OVC010
     FM161000 36007KT 3SM -SN BR BKN009 OVC014
      TEMPO 1610/1614 1SM -SN BR OVC008
     FM161400 01008KT 5SM -SN BR SCT014 OVC025
     FM161700 34009KT P6SM VCSH SCT018 OVC030
     FM162100 33009KT P6SM FEW035 SCT070 BKN120
     FM170100 24006KT P6SM FEW050 SCT100 BKN220=

USA.gov is the U.S. government's official web portal to all federal, state and local government web resources and services.